sensor_id;sensor_type;location;lat;lon;timestamp;temperature;humidity
23237;DHT22;11787;52.018;8.570;2022-07-25T00:01:50;20.90;99.90
23237;DHT22;11787;52.018;8.570;2022-07-25T00:04:16;20.90;99.90
23237;DHT22;11787;52.018;8.570;2022-07-25T00:06:42;20.90;99.90
23237;DHT22;11787;52.018;8.570;2022-07-25T00:09:08;20.80;99.90
23237;DHT22;11787;52.018;8.570;2022-07-25T00:11:33;20.80;99.90
23237;DHT22;11787;52.018;8.570;2022-07-25T00:13:59;20.80;99.90
23237;DHT22;11787;52.018;8.570;2022-07-25T00:16:25;20.70;99.90
23237;DHT22;11787;52.018;8.570;2022-07-25T00:18:50;20.70;99.90
23237;DHT22;11787;52.018;8.570;2022-07-25T00:21:16;20.70;99.90
23237;DHT22;11787;52.018;8.570;2022-07-25T00:23:42;20.60;99.90
23237;DHT22;11787;52.018;8.570;2022-07-25T00:26:07;20.60;99.90
23237;DHT22;11787;52.018;8.570;2022-07-25T00:28:33;20.40;99.90
23237;DHT22;11787;52.018;8.570;2022-07-25T00:30:58;20.40;99.90
23237;DHT22;11787;52.018;8.570;2022-07-25T00:33:24;20.40;99.90
23237;DHT22;11787;52.018;8.570;2022-07-25T00:35:50;20.40;99.90
23237;DHT22;11787;52.018;8.570;2022-07-25T00:38:15;20.40;99.90
23237;DHT22;11787;52.018;8.570;2022-07-25T00:40:41;20.30;99.90
23237;DHT22;11787;52.018;8.570;2022-07-25T00:43:07;20.40;99.90
23237;DHT22;11787;52.018;8.570;2022-07-25T00:45:32;20.30;99.90
23237;DHT22;11787;52.018;8.570;2022-07-25T00:47:58;20.30;99.90
23237;DHT22;11787;52.018;8.570;2022-07-25T00:50:24;20.30;99.90
23237;DHT22;11787;52.018;8.570;2022-07-25T00:52:51;20.30;99.90
23237;DHT22;11787;52.018;8.570;2022-07-25T00:55:17;20.20;99.90
23237;DHT22;11787;52.018;8.570;2022-07-25T00:57:43;20.30;99.90
23237;DHT22;11787;52.018;8.570;2022-07-25T01:00:12;20.30;99.90
23237;DHT22;11787;52.018;8.570;2022-07-25T01:02:39;20.30;99.90
23237;DHT22;11787;52.018;8.570;2022-07-25T01:05:05;20.20;99.90
23237;DHT22;11787;52.018;8.570;2022-07-25T01:07:31;20.20;99.90
23237;DHT22;11787;52.018;8.570;2022-07-25T01:09:58;20.20;99.90
23237;DHT22;11787;52.018;8.570;2022-07-25T01:12:24;20.10;99.90
23237;DHT22;11787;52.018;8.570;2022-07-25T01:14:50;20.00;99.90
23237;DHT22;11787;52.018;8.570;2022-07-25T01:17:16;20.00;99.90
23237;DHT22;11787;52.018;8.570;2022-07-25T01:19:42;20.00;99.90
23237;DHT22;11787;52.018;8.570;2022-07-25T01:22:07;19.90;99.90
23237;DHT22;11787;52.018;8.570;2022-07-25T01:24:34;19.90;99.90
23237;DHT22;11787;52.018;8.570;2022-07-25T01:27:00;19.90;99.90
23237;DHT22;11787;52.018;8.570;2022-07-25T01:29:27;19.80;99.90
23237;DHT22;11787;52.018;8.570;2022-07-25T01:31:52;19.80;99.90
23237;DHT22;11787;52.018;8.570;2022-07-25T01:34:18;19.80;99.90
23237;DHT22;11787;52.018;8.570;2022-07-25T01:36:44;19.70;99.90
23237;DHT22;11787;52.018;8.570;2022-07-25T01:39:09;19.80;99.90
23237;DHT22;11787;52.018;8.570;2022-07-25T01:41:35;19.70;99.90
23237;DHT22;11787;52.018;8.570;2022-07-25T01:44:00;19.70;99.90
23237;DHT22;11787;52.018;8.570;2022-07-25T01:46:26;19.70;99.90
23237;DHT22;11787;52.018;8.570;2022-07-25T01:48:51;19.70;99.90
23237;DHT22;11787;52.018;8.570;2022-07-25T01:51:17;19.60;99.90
23237;DHT22;11787;52.018;8.570;2022-07-25T01:53:43;19.60;99.90
23237;DHT22;11787;52.018;8.570;2022-07-25T01:56:08;19.60;99.90
23237;DHT22;11787;52.018;8.570;2022-07-25T01:58:34;19.60;99.90
23237;DHT22;11787;52.018;8.570;2022-07-25T02:01:00;19.60;99.90
23237;DHT22;11787;52.018;8.570;2022-07-25T02:03:25;19.50;99.90
23237;DHT22;11787;52.018;8.570;2022-07-25T02:05:54;19.40;99.90
23237;DHT22;11787;52.018;8.570;2022-07-25T02:08:20;19.40;99.90
23237;DHT22;11787;52.018;8.570;2022-07-25T02:10:46;19.30;99.90
23237;DHT22;11787;52.018;8.570;2022-07-25T02:13:12;19.40;99.90
23237;DHT22;11787;52.018;8.570;2022-07-25T02:15:37;19.40;99.90
23237;DHT22;11787;52.018;8.570;2022-07-25T02:18:03;19.40;99.90
23237;DHT22;11787;52.018;8.570;2022-07-25T02:20:29;19.30;99.90
23237;DHT22;11787;52.018;8.570;2022-07-25T02:22:55;19.40;99.90
23237;DHT22;11787;52.018;8.570;2022-07-25T02:25:20;19.40;99.90
23237;DHT22;11787;52.018;8.570;2022-07-25T02:27:46;19.40;99.90
23237;DHT22;11787;52.018;8.570;2022-07-25T02:30:12;19.40;99.90
23237;DHT22;11787;52.018;8.570;2022-07-25T02:32:38;19.40;99.90
23237;DHT22;11787;52.018;8.570;2022-07-25T02:35:05;19.30;99.90
23237;DHT22;11787;52.018;8.570;2022-07-25T02:37:31;19.30;99.90
23237;DHT22;11787;52.018;8.570;2022-07-25T02:39:56;19.30;99.90
23237;DHT22;11787;52.018;8.570;2022-07-25T02:42:22;19.20;99.90
23237;DHT22;11787;52.018;8.570;2022-07-25T02:44:48;19.20;99.90
23237;DHT22;11787;52.018;8.570;2022-07-25T02:47:13;19.20;99.90
23237;DHT22;11787;52.018;8.570;2022-07-25T02:49:39;19.10;99.90
23237;DHT22;11787;52.018;8.570;2022-07-25T02:52:05;19.10;99.90
23237;DHT22;11787;52.018;8.570;2022-07-25T02:54:30;19.00;99.90
23237;DHT22;11787;52.018;8.570;2022-07-25T02:56:56;19.00;99.90
23237;DHT22;11787;52.018;8.570;2022-07-25T02:59:21;19.10;99.90
23237;DHT22;11787;52.018;8.570;2022-07-25T03:01:47;19.10;99.90
23237;DHT22;11787;52.018;8.570;2022-07-25T03:04:12;19.10;99.90
23237;DHT22;11787;52.018;8.570;2022-07-25T03:06:38;19.00;99.90
23237;DHT22;11787;52.018;8.570;2022-07-25T03:09:04;19.00;99.90
23237;DHT22;11787;52.018;8.570;2022-07-25T03:11:29;18.90;99.90
23237;DHT22;11787;52.018;8.570;2022-07-25T03:13:55;18.80;99.90
23237;DHT22;11787;52.018;8.570;2022-07-25T03:16:20;18.80;99.90
23237;DHT22;11787;52.018;8.570;2022-07-25T03:18:46;18.80;99.90
23237;DHT22;11787;52.018;8.570;2022-07-25T03:21:12;18.80;99.90
23237;DHT22;11787;52.018;8.570;2022-07-25T03:23:37;18.80;99.90
23237;DHT22;11787;52.018;8.570;2022-07-25T03:26:03;18.70;99.90
23237;DHT22;11787;52.018;8.570;2022-07-25T03:28:29;18.70;99.90
23237;DHT22;11787;52.018;8.570;2022-07-25T03:30:55;18.70;99.90
23237;DHT22;11787;52.018;8.570;2022-07-25T03:33:20;18.80;99.90
23237;DHT22;11787;52.018;8.570;2022-07-25T03:35:46;18.80;99.90
23237;DHT22;11787;52.018;8.570;2022-07-25T03:38:11;18.80;99.90
23237;DHT22;11787;52.018;8.570;2022-07-25T03:40:37;18.80;99.90
23237;DHT22;11787;52.018;8.570;2022-07-25T03:43:04;18.80;99.90
23237;DHT22;11787;52.018;8.570;2022-07-25T03:45:29;18.80;99.90
23237;DHT22;11787;52.018;8.570;2022-07-25T03:47:55;18.70;99.90
23237;DHT22;11787;52.018;8.570;2022-07-25T03:50:20;18.70;99.90
23237;DHT22;11787;52.018;8.570;2022-07-25T03:52:46;18.70;99.90
23237;DHT22;11787;52.018;8.570;2022-07-25T03:55:12;18.70;99.90
23237;DHT22;11787;52.018;8.570;2022-07-25T03:57:38;18.60;99.90
23237;DHT22;11787;52.018;8.570;2022-07-25T04:00:08;18.50;99.90
23237;DHT22;11787;52.018;8.570;2022-07-25T04:02:34;18.50;99.90
23237;DHT22;11787;52.018;8.570;2022-07-25T04:05:02;18.60;99.90
23237;DHT22;11787;52.018;8.570;2022-07-25T04:07:28;18.60;99.90
23237;DHT22;11787;52.018;8.570;2022-07-25T04:09:53;18.60;99.90
23237;DHT22;11787;52.018;8.570;2022-07-25T04:12:19;18.60;99.90
23237;DHT22;11787;52.018;8.570;2022-07-25T04:14:44;18.60;99.90
23237;DHT22;11787;52.018;8.570;2022-07-25T04:17:10;18.60;99.90
23237;DHT22;11787;52.018;8.570;2022-07-25T04:19:36;18.70;99.90
23237;DHT22;11787;52.018;8.570;2022-07-25T04:22:01;18.60;99.90
23237;DHT22;11787;52.018;8.570;2022-07-25T04:24:27;18.70;99.90
23237;DHT22;11787;52.018;8.570;2022-07-25T04:26:52;18.70;99.90
23237;DHT22;11787;52.018;8.570;2022-07-25T04:29:18;18.80;99.90
23237;DHT22;11787;52.018;8.570;2022-07-25T04:31:44;18.70;99.90
23237;DHT22;11787;52.018;8.570;2022-07-25T04:34:09;18.80;99.90
23237;DHT22;11787;52.018;8.570;2022-07-25T04:36:35;18.80;99.90
23237;DHT22;11787;52.018;8.570;2022-07-25T04:39:01;18.90;99.90
23237;DHT22;11787;52.018;8.570;2022-07-25T04:41:26;18.80;99.90
23237;DHT22;11787;52.018;8.570;2022-07-25T04:43:52;18.90;99.90
23237;DHT22;11787;52.018;8.570;2022-07-25T04:46:19;18.90;99.90
23237;DHT22;11787;52.018;8.570;2022-07-25T04:48:45;18.90;99.90
23237;DHT22;11787;52.018;8.570;2022-07-25T04:51:10;19.10;99.90
23237;DHT22;11787;52.018;8.570;2022-07-25T04:53:36;19.10;99.90
23237;DHT22;11787;52.018;8.570;2022-07-25T04:56:02;19.20;99.90
23237;DHT22;11787;52.018;8.570;2022-07-25T04:58:27;19.20;99.90
23237;DHT22;11787;52.018;8.570;2022-07-25T05:00:53;19.30;99.90
23237;DHT22;11787;52.018;8.570;2022-07-25T05:03:18;19.40;99.90
23237;DHT22;11787;52.018;8.570;2022-07-25T05:05:44;19.40;99.90
23237;DHT22;11787;52.018;8.570;2022-07-25T05:08:10;19.50;99.90
23237;DHT22;11787;52.018;8.570;2022-07-25T05:10:35;19.60;99.90
23237;DHT22;11787;52.018;8.570;2022-07-25T05:13:01;19.70;99.90
23237;DHT22;11787;52.018;8.570;2022-07-25T05:15:26;19.70;99.90
23237;DHT22;11787;52.018;8.570;2022-07-25T05:17:52;19.90;99.90
23237;DHT22;11787;52.018;8.570;2022-07-25T05:20:18;20.10;99.90
23237;DHT22;11787;52.018;8.570;2022-07-25T05:22:43;20.40;99.90
23237;DHT22;11787;52.018;8.570;2022-07-25T05:25:10;20.80;99.90
23237;DHT22;11787;52.018;8.570;2022-07-25T05:27:36;21.30;99.90
23237;DHT22;11787;52.018;8.570;2022-07-25T05:30:02;21.60;99.90
23237;DHT22;11787;52.018;8.570;2022-07-25T05:32:28;22.00;99.90
23237;DHT22;11787;52.018;8.570;2022-07-25T05:34:54;22.50;99.90
23237;DHT22;11787;52.018;8.570;2022-07-25T05:37:19;23.00;99.90
23237;DHT22;11787;52.018;8.570;2022-07-25T05:39:45;23.40;99.90
23237;DHT22;11787;52.018;8.570;2022-07-25T05:42:10;23.90;99.90
23237;DHT22;11787;52.018;8.570;2022-07-25T05:44:36;24.30;99.90
23237;DHT22;11787;52.018;8.570;2022-07-25T05:47:01;24.50;99.90
23237;DHT22;11787;52.018;8.570;2022-07-25T05:49:27;25.00;99.90
23237;DHT22;11787;52.018;8.570;2022-07-25T05:51:52;25.20;99.90
23237;DHT22;11787;52.018;8.570;2022-07-25T05:54:18;25.60;99.90
23237;DHT22;11787;52.018;8.570;2022-07-25T05:56:43;25.80;99.90
23237;DHT22;11787;52.018;8.570;2022-07-25T05:59:09;25.80;99.90
23237;DHT22;11787;52.018;8.570;2022-07-25T06:01:34;25.80;99.90
23237;DHT22;11787;52.018;8.570;2022-07-25T06:04:00;25.70;99.90
23237;DHT22;11787;52.018;8.570;2022-07-25T06:06:25;25.50;99.90
23237;DHT22;11787;52.018;8.570;2022-07-25T06:08:51;25.60;99.90
23237;DHT22;11787;52.018;8.570;2022-07-25T06:11:16;25.80;99.90
23237;DHT22;11787;52.018;8.570;2022-07-25T06:13:42;26.20;99.90
23237;DHT22;11787;52.018;8.570;2022-07-25T06:16:07;26.30;99.90
23237;DHT22;11787;52.018;8.570;2022-07-25T06:18:33;26.30;99.90
23237;DHT22;11787;52.018;8.570;2022-07-25T06:20:58;26.40;99.90
23237;DHT22;11787;52.018;8.570;2022-07-25T06:23:24;26.50;99.90
23237;DHT22;11787;52.018;8.570;2022-07-25T06:25:50;26.70;99.90
23237;DHT22;11787;52.018;8.570;2022-07-25T06:28:16;26.90;99.90
23237;DHT22;11787;52.018;8.570;2022-07-25T06:30:42;27.10;99.90
23237;DHT22;11787;52.018;8.570;2022-07-25T06:33:08;27.30;99.90
23237;DHT22;11787;52.018;8.570;2022-07-25T06:35:33;27.30;99.90
23237;DHT22;11787;52.018;8.570;2022-07-25T06:37:59;27.00;99.90
23237;DHT22;11787;52.018;8.570;2022-07-25T06:40:24;26.90;99.90
23237;DHT22;11787;52.018;8.570;2022-07-25T06:42:50;26.80;99.90
23237;DHT22;11787;52.018;8.570;2022-07-25T06:45:15;26.70;99.90
23237;DHT22;11787;52.018;8.570;2022-07-25T06:47:41;26.70;99.90
23237;DHT22;11787;52.018;8.570;2022-07-25T06:50:09;26.60;99.90
23237;DHT22;11787;52.018;8.570;2022-07-25T06:52:34;26.50;99.90
23237;DHT22;11787;52.018;8.570;2022-07-25T06:55:00;26.40;99.90
23237;DHT22;11787;52.018;8.570;2022-07-25T06:57:26;26.50;99.90
23237;DHT22;11787;52.018;8.570;2022-07-25T06:59:51;26.60;99.90
23237;DHT22;11787;52.018;8.570;2022-07-25T07:02:17;26.60;99.90
23237;DHT22;11787;52.018;8.570;2022-07-25T07:04:42;26.50;99.90
23237;DHT22;11787;52.018;8.570;2022-07-25T07:07:08;26.50;99.90
23237;DHT22;11787;52.018;8.570;2022-07-25T07:09:33;26.60;99.90
23237;DHT22;11787;52.018;8.570;2022-07-25T07:11:59;26.60;99.90
23237;DHT22;11787;52.018;8.570;2022-07-25T07:14:24;26.70;99.90
23237;DHT22;11787;52.018;8.570;2022-07-25T07:16:50;26.80;99.90
23237;DHT22;11787;52.018;8.570;2022-07-25T07:19:15;26.90;99.90
23237;DHT22;11787;52.018;8.570;2022-07-25T07:21:41;26.90;99.90
23237;DHT22;11787;52.018;8.570;2022-07-25T07:24:07;27.00;99.90
23237;DHT22;11787;52.018;8.570;2022-07-25T07:26:33;27.00;99.90
23237;DHT22;11787;52.018;8.570;2022-07-25T07:28:58;27.10;99.90
23237;DHT22;11787;52.018;8.570;2022-07-25T07:31:24;27.20;99.90
23237;DHT22;11787;52.018;8.570;2022-07-25T07:33:50;27.30;99.90
23237;DHT22;11787;52.018;8.570;2022-07-25T07:36:15;27.40;99.90
23237;DHT22;11787;52.018;8.570;2022-07-25T07:38:41;27.40;99.90
23237;DHT22;11787;52.018;8.570;2022-07-25T07:41:08;27.40;99.90
23237;DHT22;11787;52.018;8.570;2022-07-25T07:43:34;27.50;99.90
23237;DHT22;11787;52.018;8.570;2022-07-25T07:46:00;27.40;99.90
23237;DHT22;11787;52.018;8.570;2022-07-25T07:48:26;27.50;99.90
23237;DHT22;11787;52.018;8.570;2022-07-25T07:50:51;27.50;99.90
23237;DHT22;11787;52.018;8.570;2022-07-25T07:53:17;27.60;99.90
23237;DHT22;11787;52.018;8.570;2022-07-25T07:55:42;27.70;99.90
23237;DHT22;11787;52.018;8.570;2022-07-25T07:58:08;27.70;99.90
23237;DHT22;11787;52.018;8.570;2022-07-25T08:00:34;27.80;99.90
23237;DHT22;11787;52.018;8.570;2022-07-25T08:03:01;27.80;99.90
23237;DHT22;11787;52.018;8.570;2022-07-25T08:05:28;27.80;99.90
23237;DHT22;11787;52.018;8.570;2022-07-25T08:07:54;27.80;99.90
23237;DHT22;11787;52.018;8.570;2022-07-25T08:10:24;27.90;99.90
23237;DHT22;11787;52.018;8.570;2022-07-25T08:12:50;28.00;99.90
23237;DHT22;11787;52.018;8.570;2022-07-25T08:15:16;28.00;99.90
23237;DHT22;11787;52.018;8.570;2022-07-25T08:17:42;28.10;99.90
23237;DHT22;11787;52.018;8.570;2022-07-25T08:20:08;28.30;99.90
23237;DHT22;11787;52.018;8.570;2022-07-25T08:22:34;28.50;99.90
23237;DHT22;11787;52.018;8.570;2022-07-25T08:25:00;28.60;99.90
23237;DHT22;11787;52.018;8.570;2022-07-25T08:27:25;28.80;99.90
23237;DHT22;11787;52.018;8.570;2022-07-25T08:29:51;29.00;99.90
23237;DHT22;11787;52.018;8.570;2022-07-25T08:32:17;29.20;99.90
23237;DHT22;11787;52.018;8.570;2022-07-25T08:34:42;29.40;99.90
23237;DHT22;11787;52.018;8.570;2022-07-25T08:37:08;29.70;99.90
23237;DHT22;11787;52.018;8.570;2022-07-25T08:39:33;29.90;99.90
23237;DHT22;11787;52.018;8.570;2022-07-25T08:41:59;30.00;99.90
23237;DHT22;11787;52.018;8.570;2022-07-25T08:44:30;30.20;99.90
23237;DHT22;11787;52.018;8.570;2022-07-25T08:47:01;30.10;99.90
23237;DHT22;11787;52.018;8.570;2022-07-25T08:49:27;30.00;99.90
23237;DHT22;11787;52.018;8.570;2022-07-25T08:51:54;30.10;99.90
23237;DHT22;11787;52.018;8.570;2022-07-25T08:54:22;30.10;99.90
23237;DHT22;11787;52.018;8.570;2022-07-25T08:56:47;30.10;99.90
23237;DHT22;11787;52.018;8.570;2022-07-25T08:59:13;30.10;99.90
23237;DHT22;11787;52.018;8.570;2022-07-25T09:01:39;30.10;99.90
23237;DHT22;11787;52.018;8.570;2022-07-25T09:04:07;30.10;99.90
23237;DHT22;11787;52.018;8.570;2022-07-25T09:06:33;30.20;99.90
23237;DHT22;11787;52.018;8.570;2022-07-25T09:09:00;30.10;99.90
23237;DHT22;11787;52.018;8.570;2022-07-25T09:11:36;30.10;99.90
23237;DHT22;11787;52.018;8.570;2022-07-25T09:14:08;30.10;99.90
23237;DHT22;11787;52.018;8.570;2022-07-25T09:16:42;30.10;99.90
23237;DHT22;11787;52.018;8.570;2022-07-25T09:19:12;30.20;99.90
23237;DHT22;11787;52.018;8.570;2022-07-25T09:21:39;30.40;99.90
23237;DHT22;11787;52.018;8.570;2022-07-25T09:24:17;30.50;99.90
23237;DHT22;11787;52.018;8.570;2022-07-25T09:26:54;30.60;99.90
23237;DHT22;11787;52.018;8.570;2022-07-25T09:29:22;30.90;99.90
23237;DHT22;11787;52.018;8.570;2022-07-25T09:31:50;30.90;99.90
23237;DHT22;11787;52.018;8.570;2022-07-25T09:34:37;31.00;99.90
23237;DHT22;11787;52.018;8.570;2022-07-25T09:37:13;30.80;99.90
23237;DHT22;11787;52.018;8.570;2022-07-25T09:39:48;30.70;99.90
23237;DHT22;11787;52.018;8.570;2022-07-25T09:44:43;30.60;99.90
23237;DHT22;11787;52.018;8.570;2022-07-25T09:47:11;30.50;99.90
23237;DHT22;11787;52.018;8.570;2022-07-25T09:49:42;30.30;99.90
23237;DHT22;11787;52.018;8.570;2022-07-25T09:52:10;30.30;99.90
23237;DHT22;11787;52.018;8.570;2022-07-25T09:54:37;30.10;99.90
23237;DHT22;11787;52.018;8.570;2022-07-25T09:57:03;30.10;99.90
23237;DHT22;11787;52.018;8.570;2022-07-25T09:59:28;30.00;99.90
23237;DHT22;11787;52.018;8.570;2022-07-25T10:26:15;29.40;99.90
23237;DHT22;11787;52.018;8.570;2022-07-25T10:28:48;29.40;99.90
23237;DHT22;11787;52.018;8.570;2022-07-25T10:33:54;29.60;99.90
23237;DHT22;11787;52.018;8.570;2022-07-25T10:36:21;29.70;99.90
23237;DHT22;11787;52.018;8.570;2022-07-25T10:38:50;29.80;99.90
23237;DHT22;11787;52.018;8.570;2022-07-25T10:41:16;29.80;99.90
23237;DHT22;11787;52.018;8.570;2022-07-25T10:43:44;29.70;99.90
23237;DHT22;11787;52.018;8.570;2022-07-25T10:46:17;29.80;99.90
23237;DHT22;11787;52.018;8.570;2022-07-25T10:48:43;29.90;99.90
23237;DHT22;11787;52.018;8.570;2022-07-25T10:51:11;29.90;99.90
23237;DHT22;11787;52.018;8.570;2022-07-25T10:56:20;30.50;99.90
23237;DHT22;11787;52.018;8.570;2022-07-25T10:58:54;31.20;99.90
23237;DHT22;11787;52.018;8.570;2022-07-25T11:01:24;31.60;99.90
23237;DHT22;11787;52.018;8.570;2022-07-25T11:03:51;31.80;99.90
23237;DHT22;11787;52.018;8.570;2022-07-25T11:06:35;32.00;99.90
23237;DHT22;11787;52.018;8.570;2022-07-25T11:09:03;31.70;99.90
23237;DHT22;11787;52.018;8.570;2022-07-25T11:11:33;31.70;99.90
23237;DHT22;11787;52.018;8.570;2022-07-25T11:13:59;31.60;99.90
23237;DHT22;11787;52.018;8.570;2022-07-25T11:16:26;31.60;99.90
23237;DHT22;11787;52.018;8.570;2022-07-25T11:18:52;31.70;99.90
23237;DHT22;11787;52.018;8.570;2022-07-25T11:21:19;31.90;99.90
23237;DHT22;11787;52.018;8.570;2022-07-25T11:23:49;32.10;99.90
23237;DHT22;11787;52.018;8.570;2022-07-25T11:26:16;32.20;99.90
23237;DHT22;11787;52.018;8.570;2022-07-25T11:28:49;31.80;99.90
23237;DHT22;11787;52.018;8.570;2022-07-25T11:31:16;31.50;99.90
23237;DHT22;11787;52.018;8.570;2022-07-25T11:33:46;31.20;99.90
23237;DHT22;11787;52.018;8.570;2022-07-25T11:36:12;31.20;99.90
23237;DHT22;11787;52.018;8.570;2022-07-25T11:38:39;31.40;99.90
23237;DHT22;11787;52.018;8.570;2022-07-25T11:41:06;31.20;99.90
23237;DHT22;11787;52.018;8.570;2022-07-25T11:43:32;31.20;99.90
23237;DHT22;11787;52.018;8.570;2022-07-25T11:46:00;30.90;99.90
23237;DHT22;11787;52.018;8.570;2022-07-25T11:48:32;30.80;99.90
23237;DHT22;11787;52.018;8.570;2022-07-25T11:51:07;30.70;99.90
23237;DHT22;11787;52.018;8.570;2022-07-25T11:53:39;30.60;99.90
23237;DHT22;11787;52.018;8.570;2022-07-25T11:56:19;30.50;99.90
23237;DHT22;11787;52.018;8.570;2022-07-25T11:58:58;30.30;99.90
23237;DHT22;11787;52.018;8.570;2022-07-25T12:01:32;30.30;99.90
23237;DHT22;11787;52.018;8.570;2022-07-25T12:04:06;30.30;99.90
23237;DHT22;11787;52.018;8.570;2022-07-25T12:06:32;30.40;99.90
23237;DHT22;11787;52.018;8.570;2022-07-25T12:08:57;30.30;99.90
23237;DHT22;11787;52.018;8.570;2022-07-25T12:11:33;30.30;99.90
23237;DHT22;11787;52.018;8.570;2022-07-25T12:14:03;30.10;99.90
23237;DHT22;11787;52.018;8.570;2022-07-25T12:16:30;30.20;99.90
23237;DHT22;11787;52.018;8.570;2022-07-25T12:18:55;30.20;99.90
23237;DHT22;11787;52.018;8.570;2022-07-25T12:21:21;30.00;99.90
23237;DHT22;11787;52.018;8.570;2022-07-25T12:23:46;30.20;99.90
23237;DHT22;11787;52.018;8.570;2022-07-25T12:26:12;30.60;99.90
23237;DHT22;11787;52.018;8.570;2022-07-25T12:28:39;31.20;99.90
23237;DHT22;11787;52.018;8.570;2022-07-25T12:31:05;31.60;99.90
23237;DHT22;11787;52.018;8.570;2022-07-25T12:33:30;31.80;99.90
23237;DHT22;11787;52.018;8.570;2022-07-25T12:35:57;32.10;99.90
23237;DHT22;11787;52.018;8.570;2022-07-25T12:38:23;32.10;99.90
23237;DHT22;11787;52.018;8.570;2022-07-25T12:40:49;32.40;99.90
23237;DHT22;11787;52.018;8.570;2022-07-25T12:43:14;32.40;99.90
23237;DHT22;11787;52.018;8.570;2022-07-25T12:45:40;32.40;99.90
23237;DHT22;11787;52.018;8.570;2022-07-25T12:48:07;32.70;99.90
23237;DHT22;11787;52.018;8.570;2022-07-25T12:50:33;32.80;99.90
23237;DHT22;11787;52.018;8.570;2022-07-25T12:52:59;33.00;99.90
23237;DHT22;11787;52.018;8.570;2022-07-25T12:55:25;33.10;99.90
23237;DHT22;11787;52.018;8.570;2022-07-25T12:57:51;32.80;99.90
23237;DHT22;11787;52.018;8.570;2022-07-25T13:00:20;32.60;99.90
23237;DHT22;11787;52.018;8.570;2022-07-25T13:02:48;32.90;99.90
23237;DHT22;11787;52.018;8.570;2022-07-25T13:05:16;32.90;99.90
23237;DHT22;11787;52.018;8.570;2022-07-25T13:07:43;32.70;99.90
23237;DHT22;11787;52.018;8.570;2022-07-25T13:10:09;32.70;99.90
23237;DHT22;11787;52.018;8.570;2022-07-25T13:12:35;32.60;99.90
23237;DHT22;11787;52.018;8.570;2022-07-25T13:15:00;32.60;99.90
23237;DHT22;11787;52.018;8.570;2022-07-25T13:17:26;32.10;99.90
23237;DHT22;11787;52.018;8.570;2022-07-25T13:19:52;31.80;99.90
23237;DHT22;11787;52.018;8.570;2022-07-25T13:22:17;31.80;99.90
23237;DHT22;11787;52.018;8.570;2022-07-25T13:24:43;31.70;99.90
23237;DHT22;11787;52.018;8.570;2022-07-25T13:27:09;31.60;99.90
23237;DHT22;11787;52.018;8.570;2022-07-25T13:29:35;31.60;99.90
23237;DHT22;11787;52.018;8.570;2022-07-25T13:32:01;31.50;99.90
23237;DHT22;11787;52.018;8.570;2022-07-25T13:34:27;31.40;99.90
23237;DHT22;11787;52.018;8.570;2022-07-25T13:36:53;31.40;99.90
23237;DHT22;11787;52.018;8.570;2022-07-25T13:39:18;31.20;99.90
23237;DHT22;11787;52.018;8.570;2022-07-25T13:41:47;31.00;99.90
23237;DHT22;11787;52.018;8.570;2022-07-25T13:44:13;31.10;99.90
23237;DHT22;11787;52.018;8.570;2022-07-25T13:46:40;31.20;99.90
23237;DHT22;11787;52.018;8.570;2022-07-25T13:49:06;31.10;99.90
23237;DHT22;11787;52.018;8.570;2022-07-25T13:51:31;31.20;99.90
23237;DHT22;11787;52.018;8.570;2022-07-25T13:53:57;31.10;99.90
23237;DHT22;11787;52.018;8.570;2022-07-25T13:56:22;31.00;99.90
23237;DHT22;11787;52.018;8.570;2022-07-25T13:58:48;30.90;99.90
23237;DHT22;11787;52.018;8.570;2022-07-25T14:01:14;30.90;99.90
23237;DHT22;11787;52.018;8.570;2022-07-25T14:03:39;30.90;99.90
23237;DHT22;11787;52.018;8.570;2022-07-25T14:06:08;30.90;99.90
23237;DHT22;11787;52.018;8.570;2022-07-25T14:08:36;30.90;99.90
23237;DHT22;11787;52.018;8.570;2022-07-25T14:11:02;31.00;99.90
23237;DHT22;11787;52.018;8.570;2022-07-25T14:13:29;31.00;99.90
23237;DHT22;11787;52.018;8.570;2022-07-25T14:15:57;30.70;99.90
23237;DHT22;11787;52.018;8.570;2022-07-25T14:18:23;30.60;99.90
23237;DHT22;11787;52.018;8.570;2022-07-25T14:20:48;30.60;99.90
23237;DHT22;11787;52.018;8.570;2022-07-25T14:23:15;30.70;99.90
23237;DHT22;11787;52.018;8.570;2022-07-25T14:25:41;30.50;99.90
23237;DHT22;11787;52.018;8.570;2022-07-25T14:28:07;30.40;99.90
23237;DHT22;11787;52.018;8.570;2022-07-25T14:30:33;30.40;99.90
23237;DHT22;11787;52.018;8.570;2022-07-25T14:32:58;30.40;99.90
23237;DHT22;11787;52.018;8.570;2022-07-25T14:35:24;30.10;99.90
23237;DHT22;11787;52.018;8.570;2022-07-25T14:37:49;30.00;99.90
23237;DHT22;11787;52.018;8.570;2022-07-25T14:40:15;29.90;99.90
23237;DHT22;11787;52.018;8.570;2022-07-25T14:42:41;29.80;99.90
23237;DHT22;11787;52.018;8.570;2022-07-25T14:45:07;29.80;99.90
23237;DHT22;11787;52.018;8.570;2022-07-25T14:47:33;29.70;99.90
23237;DHT22;11787;52.018;8.570;2022-07-25T14:49:59;29.80;99.90
23237;DHT22;11787;52.018;8.570;2022-07-25T14:52:25;29.80;99.90
23237;DHT22;11787;52.018;8.570;2022-07-25T14:54:50;29.70;99.90
23237;DHT22;11787;52.018;8.570;2022-07-25T14:57:16;29.50;99.90
23237;DHT22;11787;52.018;8.570;2022-07-25T14:59:41;29.60;99.90
23237;DHT22;11787;52.018;8.570;2022-07-25T15:02:07;29.60;99.90
23237;DHT22;11787;52.018;8.570;2022-07-25T15:04:33;29.50;99.90
23237;DHT22;11787;52.018;8.570;2022-07-25T15:06:59;29.50;99.90
23237;DHT22;11787;52.018;8.570;2022-07-25T15:09:24;29.30;99.90
23237;DHT22;11787;52.018;8.570;2022-07-25T15:11:50;29.20;99.90
23237;DHT22;11787;52.018;8.570;2022-07-25T15:14:15;29.00;99.90
23237;DHT22;11787;52.018;8.570;2022-07-25T15:16:41;29.10;99.90
23237;DHT22;11787;52.018;8.570;2022-07-25T15:19:06;29.00;99.90
23237;DHT22;11787;52.018;8.570;2022-07-25T15:21:32;28.90;99.90
23237;DHT22;11787;52.018;8.570;2022-07-25T15:23:58;28.80;99.90
23237;DHT22;11787;52.018;8.570;2022-07-25T15:26:24;28.70;99.90
23237;DHT22;11787;52.018;8.570;2022-07-25T15:28:49;28.60;99.90
23237;DHT22;11787;52.018;8.570;2022-07-25T15:31:15;28.70;99.90
23237;DHT22;11787;52.018;8.570;2022-07-25T15:33:41;28.80;99.90
23237;DHT22;11787;52.018;8.570;2022-07-25T15:36:07;28.80;99.90
23237;DHT22;11787;52.018;8.570;2022-07-25T15:38:32;28.70;99.90
23237;DHT22;11787;52.018;8.570;2022-07-25T15:40:58;28.70;99.90
23237;DHT22;11787;52.018;8.570;2022-07-25T15:43:24;28.50;99.90
23237;DHT22;11787;52.018;8.570;2022-07-25T15:45:49;28.30;99.90
23237;DHT22;11787;52.018;8.570;2022-07-25T15:48:15;28.30;99.90
23237;DHT22;11787;52.018;8.570;2022-07-25T15:50:43;28.30;99.90
23237;DHT22;11787;52.018;8.570;2022-07-25T15:53:09;28.20;99.90
23237;DHT22;11787;52.018;8.570;2022-07-25T15:55:35;28.20;99.90
23237;DHT22;11787;52.018;8.570;2022-07-25T15:58:01;28.20;99.90